Time;durP1;ratioP1;P1;durP2;ratioP2;P2;SDS_P1;SDS_P2;PMS_P1;PMS_P2;Temp;Humidity;BMP_temperature;BMP_pressure;BME280_temperature;BME280_humidity;BME280_pressure;Samples;Min_cycle;Max_cycle;Signal;HPM_P1;HPM_P2
2021/07/28 00:01:21;;;;;;;10.30;5.17;;;;;;;25.84;40.75;100240.16;1764468;81;20924;-59
2021/07/28 00:03:48;;;;;;;8.10;5.28;;;;;;;25.85;40.76;100243.16;1767365;79;20999;-60
2021/07/28 00:06:21;;;;;;;12.07;5.70;;;;;;;25.85;40.88;100247.82;1783721;79;21101;-59
2021/07/28 00:08:48;;;;;;;11.40;5.78;;;;;;;25.83;40.96;100249.52;1783334;79;20959;-60
2021/07/28 00:15:20;;;;;;;8.60;4.55;;;;;;;25.81;41.15;100242.73;1783579;79;20927;-59
2021/07/28 00:27:55;;;;;;;10.93;4.67;;;;;;;25.77;42.00;100233.55;1783723;79;21139;-57
2021/07/28 00:33:53;;;;;;;6.97;4.97;;;;;;;25.67;42.17;100217.63;1778470;79;21022;-59
2021/07/28 00:40:26;;;;;;;10.70;5.17;;;;;;;25.56;42.79;100221.02;1784017;79;20990;-58
2021/07/28 00:43:23;;;;;;;10.25;5.40;;;;;;;25.48;43.11;100208.34;1783387;79;21239;-59
2021/07/28 00:45:50;;;;;;;9.83;5.65;;;;;;;25.43;43.34;100194.81;1788618;79;21050;-60
2021/07/28 00:48:17;;;;;;;12.53;6.15;;;;;;;25.36;43.65;100199.97;1784970;79;20932;-60
2021/07/28 00:50:44;;;;;;;13.38;6.00;;;;;;;25.34;43.95;100202.23;1781332;79;21039;-59
2021/07/28 00:53:18;;;;;;;11.15;6.25;;;;;;;25.32;44.12;100201.19;1783475;79;21568;-60
2021/07/28 00:55:49;;;;;;;10.15;6.30;;;;;;;25.27;44.27;100197.19;1780730;79;21804;-61
2021/07/28 00:58:17;;;;;;;11.60;6.92;;;;;;;25.25;44.52;100189.03;1779599;79;21038;-60
2021/07/28 01:00:45;;;;;;;12.88;6.55;;;;;;;25.23;44.67;100194.04;1779009;79;20947;-60
2021/07/28 01:03:12;;;;;;;9.65;6.83;;;;;;;25.21;44.86;100192.98;1779399;79;21276;-60
2021/07/28 01:05:38;;;;;;;10.90;6.10;;;;;;;25.17;45.02;100195.55;1780077;79;20909;-59
2021/07/28 01:08:06;;;;;;;16.60;7.20;;;;;;;25.16;45.23;100183.53;1778914;79;21790;-60
2021/07/28 01:10:33;;;;;;;12.67;7.10;;;;;;;25.13;45.33;100188.28;1778823;79;21008;-59
2021/07/28 01:13:03;;;;;;;14.15;6.58;;;;;;;25.12;45.38;100186.69;1782305;79;20960;-60
2021/07/28 01:18:13;;;;;;;12.33;7.40;;;;;;;25.13;45.80;100186.91;1775114;79;20431;-60
2021/07/28 01:20:43;;;;;;;10.40;6.87;;;;;;;25.10;46.01;100191.67;1757650;79;21217;-60
2021/07/28 01:23:23;;;;;;;9.95;7.10;;;;;;;25.04;46.41;100194.33;1772077;79;21520;-61
2021/07/28 01:25:51;;;;;;;13.35;7.40;;;;;;;24.99;46.72;100196.66;1776763;79;20940;-61
2021/07/28 01:28:22;;;;;;;15.58;8.55;;;;;;;24.93;47.26;100191.09;1780396;79;21103;-61
2021/07/28 01:31:06;;;;;;;16.75;8.60;;;;;;;24.92;47.60;100186.73;1778206;79;21010;-59
2021/07/28 01:33:37;;;;;;;11.90;7.95;;;;;;;24.90;47.86;100189.79;1778233;79;21120;-59
2021/07/28 01:36:06;;;;;;;14.78;7.45;;;;;;;24.88;48.06;100191.23;1776311;79;20981;-59
2021/07/28 01:38:33;;;;;;;19.20;8.55;;;;;;;24.83;48.26;100187.50;1775076;79;20987;-59
2021/07/28 01:41:05;;;;;;;17.80;8.20;;;;;;;24.78;48.22;100184.92;1780269;79;20995;-59
2021/07/28 01:47:25;;;;;;;13.55;7.80;;;;;;;24.73;47.77;100178.77;1780246;79;21026;-58
2021/07/28 01:53:23;;;;;;;13.40;7.35;;;;;;;24.65;48.04;100192.13;1779760;79;21046;-59
2021/07/28 02:03:15;;;;;;;13.65;7.45;;;;;;;24.61;48.93;100180.18;1783355;79;21058;-60
2021/07/28 02:09:12;;;;;;;11.68;7.83;;;;;;;24.57;48.75;100181.94;1770644;79;20999;-62
2021/07/28 02:15:10;;;;;;;18.45;7.97;;;;;;;24.55;49.09;100183.37;1704387;82;20906;-59
2021/07/28 02:21:07;;;;;;;15.23;8.00;;;;;;;24.53;49.48;100192.45;1710246;82;20991;-60
2021/07/28 02:27:27;;;;;;;13.35;7.90;;;;;;;24.52;49.21;100191.65;1782607;79;21039;-59
2021/07/28 02:33:24;;;;;;;16.20;9.10;;;;;;;24.46;48.90;100184.70;1775116;79;20960;-62
2021/07/28 02:39:44;;;;;;;14.07;7.65;;;;;;;24.35;49.04;100188.83;1768455;81;20975;-61
2021/07/28 02:45:41;;;;;;;20.60;7.47;;;;;;;24.29;49.32;100175.29;1768058;81;20917;-60
2021/07/28 02:48:07;;;;;;;12.70;7.47;;;;;;;24.31;49.40;100185.36;1768237;81;21802;-60
2021/07/28 02:50:34;;;;;;;14.83;8.53;;;;;;;24.34;49.39;100180.36;1767688;81;21032;-60
2021/07/28 02:53:00;;;;;;;17.45;8.10;;;;;;;24.36;49.29;100171.28;1767954;81;20959;-61
2021/07/28 02:55:27;;;;;;;19.00;9.08;;;;;;;24.34;49.19;100166.13;1768088;81;20968;-61
2021/07/28 02:57:55;;;;;;;11.15;7.95;;;;;;;24.29;49.32;100162.97;1767751;81;21035;-60
2021/07/28 03:00:21;;;;;;;13.98;7.72;;;;;;;24.22;49.46;100159.88;1767681;81;21204;-60
2021/07/28 03:02:48;;;;;;;16.35;7.85;;;;;;;24.16;49.62;100157.56;1763999;81;20999;-60
2021/07/28 03:05:15;;;;;;;10.40;7.65;;;;;;;24.10;49.81;100157.72;1696150;83;21389;-58
2021/07/28 03:07:42;;;;;;;16.00;8.98;;;;;;;24.07;49.92;100152.05;1711409;82;21048;-60
2021/07/28 03:10:10;;;;;;;19.12;8.73;;;;;;;24.07;49.90;100156.98;1766760;80;20923;-58
2021/07/28 03:12:37;;;;;;;14.58;9.03;;;;;;;24.08;49.90;100157.20;1764460;80;21122;-61
2021/07/28 03:15:06;;;;;;;12.40;8.48;;;;;;;24.09;49.88;100165.67;1765763;80;20904;-59
2021/07/28 03:17:32;;;;;;;17.55;7.95;;;;;;;24.12;49.89;100165.62;1766318;81;21074;-60
2021/07/28 03:19:58;;;;;;;15.20;8.85;;;;;;;24.16;49.77;100167.16;1766277;80;21055;-58
2021/07/28 03:22:25;;;;;;;17.25;8.18;;;;;;;24.17;49.63;100165.47;1766094;80;21552;-61
2021/07/28 03:24:52;;;;;;;17.37;8.25;;;;;;;24.17;49.59;100168.78;1765919;81;21081;-61
2021/07/28 03:27:19;;;;;;;16.90;9.08;;;;;;;24.15;49.46;100171.83;1764741;81;21537;-61
2021/07/28 03:29:45;;;;;;;17.27;8.45;;;;;;;24.13;49.47;100165.84;1763344;80;21485;-60
2021/07/28 03:32:12;;;;;;;11.80;8.20;;;;;;;24.14;49.57;100177.88;1699557;84;21586;-58
2021/07/28 03:34:39;;;;;;;16.17;8.88;;;;;;;24.18;49.68;100182.73;1765913;80;21540;-60
2021/07/28 03:37:06;;;;;;;13.58;8.38;;;;;;;24.22;49.76;100185.88;1774087;79;21094;-61
2021/07/28 03:39:32;;;;;;;16.07;8.53;;;;;;;24.26;49.59;100175.92;1701588;84;21037;-58
2021/07/28 03:41:59;;;;;;;13.70;8.88;;;;;;;24.30;49.53;100175.52;1705618;83;21490;-60
2021/07/28 03:47:56;;;;;;;12.90;7.78;;;;;;;24.40;49.69;100184.60;1769269;79;20877;-56
2021/07/28 03:53:53;;;;;;;16.52;8.63;;;;;;;24.39;50.29;100196.09;1787925;79;20991;-56
2021/07/28 04:04:07;;;;;;;20.25;8.98;;;;;;;24.53;51.33;100165.05;1785135;79;21557;-57
2021/07/28 04:10:05;;;;;;;21.07;11.30;;;;;;;24.72;51.11;100182.63;1785273;79;22208;-57
2021/07/28 04:16:25;;;;;;;16.97;9.95;;;;;;;24.99;50.83;100174.73;1784437;79;21030;-62
2021/07/28 04:22:21;;;;;;;15.20;9.85;;;;;;;25.15;50.85;100169.02;1782661;79;20963;-56
2021/07/28 04:28:41;;;;;;;18.60;10.05;;;;;;;25.58;51.05;100160.58;1784371;79;21035;-56
2021/07/28 04:34:37;;;;;;;17.92;10.35;;;;;;;26.49;48.71;100174.26;1782743;79;20966;-56
2021/07/28 04:40:58;;;;;;;20.48;13.03;;;;;;;26.44;48.42;100170.88;1786070;79;21002;-58
2021/07/28 04:46:56;;;;;;;19.42;10.53;;;;;;;25.90;49.71;100157.06;1784007;79;20944;-56
2021/07/28 04:53:15;;;;;;;15.25;10.58;;;;;;;25.57;50.19;100143.07;1785037;79;21015;-58
2021/07/28 04:59:13;;;;;;;20.02;10.30;;;;;;;25.44;50.17;100128.39;1784301;79;20944;-56
2021/07/28 05:05:10;;;;;;;17.95;9.78;;;;;;;25.46;50.38;100100.08;1783689;79;20959;-58
2021/07/28 05:07:37;;;;;;;14.00;9.28;;;;;;;25.55;50.06;100097.33;1782963;79;21152;-60
2021/07/28 05:10:06;;;;;;;19.23;9.88;;;;;;;25.65;49.35;100099.16;1783147;79;20927;-59
2021/07/28 05:12:32;;;;;;;14.95;10.05;;;;;;;25.75;49.29;100095.81;1782587;79;21548;-59
2021/07/28 05:15:00;;;;;;;19.45;10.60;;;;;;;25.86;48.85;100100.62;1783965;79;20980;-60
2021/07/28 05:17:26;;;;;;;21.37;10.60;;;;;;;25.99;48.45;100093.89;1784257;79;20956;-57
2021/07/28 05:19:53;;;;;;;20.25;11.30;;;;;;;26.08;48.52;100088.40;1783927;79;21158;-60
2021/07/28 05:22:20;;;;;;;15.43;10.20;;;;;;;26.14;48.31;100092.56;1785351;79;21031;-60
2021/07/28 05:24:47;;;;;;;16.40;9.98;;;;;;;26.20;48.31;100099.48;1784238;79;20935;-58
2021/07/28 05:27:14;;;;;;;20.08;10.70;;;;;;;26.25;48.23;100115.80;1781750;79;21012;-59
2021/07/28 05:29:42;;;;;;;17.67;10.77;;;;;;;26.32;48.08;100114.69;1786182;79;20920;-58
2021/07/28 05:32:09;;;;;;;19.17;10.80;;;;;;;26.37;48.09;100115.89;1785806;79;21115;-58
2021/07/28 05:34:36;;;;;;;20.25;10.70;;;;;;;26.39;47.98;100108.69;1781912;79;20979;-59
2021/07/28 05:37:04;;;;;;;22.05;10.38;;;;;;;26.38;47.93;100096.91;1762494;79;21079;-60
2021/07/28 05:39:31;;;;;;;21.65;11.35;;;;;;;26.37;47.85;100080.17;1780662;79;20960;-59
2021/07/28 05:41:58;;;;;;;20.05;10.68;;;;;;;26.36;48.05;100070.31;1782683;79;21437;-58
2021/07/28 05:44:25;;;;;;;18.00;11.65;;;;;;;26.33;48.36;100061.36;1701753;83;21150;-60
2021/07/28 05:46:52;;;;;;;27.55;14.63;;;;;;;26.23;48.55;100044.67;1706544;82;21127;-58
2021/07/28 05:49:19;;;;;;;37.78;15.08;;;;;;;26.20;48.39;100041.80;1717538;82;20983;-62
2021/07/28 05:51:46;;;;;;;34.73;15.98;;;;;;;26.14;48.38;100039.02;1772672;79;21046;-61
2021/07/28 05:54:13;;;;;;;47.70;17.50;;;;;;;26.07;48.49;100046.38;1769418;79;21027;-59
2021/07/28 05:56:40;;;;;;;40.10;18.25;;;;;;;25.97;48.67;100060.45;1773546;79;21114;-60
2021/07/28 05:59:07;;;;;;;35.75;18.37;;;;;;;25.87;48.88;100067.13;1768259;80;20932;-59
2021/07/28 06:01:34;;;;;;;33.00;16.37;;;;;;;25.80;48.97;100079.97;1767849;80;20940;-59
2021/07/28 06:04:01;;;;;;;36.00;15.38;;;;;;;25.76;48.99;100087.83;1766140;81;21004;-61
2021/07/28 06:06:29;;;;;;;25.12;13.55;;;;;;;25.77;49.10;100094.36;1700341;84;21034;-59
2021/07/28 06:08:58;;;;;;;23.85;12.73;;;;;;;25.77;48.60;100092.98;1683831;84;21169;-59
2021/07/28 06:11:25;;;;;;;24.65;12.85;;;;;;;25.76;48.68;100088.62;1766695;81;20972;-61
2021/07/28 06:13:52;;;;;;;32.60;13.03;;;;;;;25.74;48.74;100079.92;1768125;80;21039;-59
2021/07/28 06:16:21;;;;;;;33.15;13.30;;;;;;;25.74;48.75;100085.41;1743981;81;20980;-59
2021/07/28 06:18:49;;;;;;;29.37;13.50;;;;;;;25.73;48.98;100093.97;1745223;81;20884;-61
2021/07/28 06:21:16;;;;;;;24.55;13.05;;;;;;;25.74;49.16;100102.45;1768150;81;21119;-59
2021/07/28 06:23:44;;;;;;;25.10;12.85;;;;;;;25.73;49.42;100120.05;1767091;80;20967;-58
2021/07/28 06:26:11;;;;;;;26.75;11.33;;;;;;;25.73;50.35;100138.68;1738738;81;20947;-58
2021/07/28 06:28:39;;;;;;;18.70;10.55;;;;;;;25.70;51.28;100183.25;1712313;81;20881;-60
2021/07/28 06:31:06;;;;;;;19.52;10.55;;;;;;;25.57;51.49;100213.84;1767269;81;21035;-58
2021/07/28 06:33:33;;;;;;;17.02;10.28;;;;;;;25.41;52.51;100225.05;1765277;80;21147;-60
2021/07/28 06:36:02;;;;;;;22.45;10.95;;;;;;;25.25;52.34;100243.34;1763947;81;21462;-62
2021/07/28 06:38:29;;;;;;;23.20;11.68;;;;;;;25.14;52.58;100255.72;1766573;80;21463;-61
2021/07/28 06:40:56;;;;;;;17.12;10.25;;;;;;;25.10;53.07;100257.48;1768189;80;20959;-60
2021/07/28 06:43:25;;;;;;;18.48;9.80;;;;;;;25.01;53.25;100252.80;1767494;81;21039;-58
2021/07/28 06:45:59;;;;;;;18.77;10.20;;;;;;;24.93;53.64;100280.98;1767199;81;21960;-59
2021/07/28 06:48:26;;;;;;;20.77;10.85;;;;;;;24.89;54.07;100317.00;1740915;81;20916;-58
2021/07/28 06:50:53;;;;;;;22.13;10.50;;;;;;;24.80;54.81;100344.94;1767724;80;21074;-61
2021/07/28 06:53:21;;;;;;;24.80;10.77;;;;;;;24.67;56.94;100332.94;1766201;80;20908;-62
2021/07/28 06:55:56;;;;;;;16.37;7.90;;;;;;;24.47;58.20;100313.14;1766157;80;20944;-61
2021/07/28 06:58:20;;;;;;;7.10;4.35;;;;;;;24.25;59.22;100314.53;1739286;81;21340;-61
2021/07/28 07:00:49;;;;;;;8.15;4.90;;;;;;;24.04;59.28;100309.55;1741749;80;20943;-58
2021/07/28 07:03:18;;;;;;;11.53;4.20;;;;;;;23.88;60.39;100301.42;1774015;80;20963;-63
2021/07/28 07:05:44;;;;;;;12.33;4.15;;;;;;;23.76;61.73;100295.92;1773451;80;20987;-65
2021/07/28 07:08:13;;;;;;;9.63;2.93;;;;;;;23.56;62.09;100273.12;1774697;80;21510;-62
2021/07/28 07:10:40;;;;;;;12.88;3.12;;;;;;;23.31;63.30;100281.33;1775018;80;21163;-62
2021/07/28 07:13:07;;;;;;;12.25;3.83;;;;;;;23.05;63.72;100240.81;1743238;80;20936;-62
2021/07/28 07:15:34;;;;;;;10.80;3.75;;;;;;;22.79;63.40;100200.35;1774242;80;21039;-62
2021/07/28 07:18:01;;;;;;;9.95;4.10;;;;;;;22.65;63.43;100198.97;1773244;80;20999;-62
2021/07/28 07:20:29;;;;;;;15.83;4.00;;;;;;;22.59;63.75;100187.89;1746568;80;20915;-61
2021/07/28 07:22:56;;;;;;;11.30;4.33;;;;;;;22.57;63.18;100151.89;1770921;80;21183;-62
2021/07/28 07:25:23;;;;;;;12.13;4.37;;;;;;;22.62;63.29;100143.58;1772263;80;20924;-61
2021/07/28 07:27:49;;;;;;;13.78;5.00;;;;;;;22.67;62.99;100163.16;1773560;80;20935;-61
2021/07/28 07:30:17;;;;;;;11.63;4.87;;;;;;;22.73;62.74;100174.22;1744268;80;21551;-61
2021/07/28 07:32:44;;;;;;;13.05;4.50;;;;;;;22.79;63.15;100178.49;1773564;80;21545;-61
2021/07/28 07:35:12;;;;;;;16.57;5.62;;;;;;;22.78;63.80;100171.97;1742910;80;21112;-62
2021/07/28 07:37:40;;;;;;;14.13;5.22;;;;;;;22.71;64.36;100168.27;1773781;80;20920;-60
2021/07/28 07:40:08;;;;;;;14.20;4.92;;;;;;;22.57;65.35;100163.62;1778932;79;20912;-62
2021/07/28 07:42:36;;;;;;;23.50;5.40;;;;;;;22.46;66.19;100160.02;1777118;79;21561;-61
2021/07/28 07:45:04;;;;;;;14.50;4.60;;;;;;;22.35;67.49;100153.96;1774559;80;21053;-62
2021/07/28 07:47:31;;;;;;;9.40;4.25;;;;;;;22.23;68.56;100155.77;1774860;80;21796;-61
2021/07/28 07:49:58;;;;;;;10.23;4.47;;;;;;;22.16;69.62;100155.37;1730856;80;20884;-61
2021/07/28 07:52:25;;;;;;;15.88;5.03;;;;;;;22.09;70.35;100146.77;1772682;80;21007;-61
2021/07/28 07:54:52;;;;;;;19.32;6.12;;;;;;;22.07;70.88;100141.61;1746963;80;21552;-60
2021/07/28 07:57:18;;;;;;;14.80;4.87;;;;;;;22.08;71.28;100129.56;1774893;80;20983;-60
2021/07/28 07:59:46;;;;;;;10.50;5.25;;;;;;;22.09;71.63;100126.30;1748098;80;21197;-61
2021/07/28 08:02:13;;;;;;;13.22;4.58;;;;;;;22.12;71.86;100113.41;1769610;80;21533;-60
2021/07/28 08:04:41;;;;;;;7.65;4.90;;;;;;;22.17;71.88;100107.30;1768446;81;20927;-61
2021/07/28 08:07:08;;;;;;;18.32;5.17;;;;;;;22.27;71.87;100113.10;1712848;81;20993;-59
2021/07/28 08:09:35;;;;;;;12.05;5.83;;;;;;;22.42;72.06;100112.02;1766819;80;21038;-59
2021/07/28 08:12:03;;;;;;;13.68;5.60;;;;;;;22.54;72.03;100112.88;1768210;80;21122;-59
2021/07/28 08:14:30;;;;;;;11.55;5.33;;;;;;;22.66;71.62;100122.74;1768120;81;20960;-58
2021/07/28 08:16:57;;;;;;;12.07;5.97;;;;;;;22.75;70.93;100119.53;1767728;81;20920;-60
2021/07/28 08:19:24;;;;;;;18.45;5.03;;;;;;;22.82;71.18;100112.84;1767776;81;21055;-58
2021/07/28 08:21:51;;;;;;;15.50;6.60;;;;;;;22.94;70.82;100119.97;1768137;81;20928;-59
2021/07/28 08:24:18;;;;;;;16.30;5.83;;;;;;;23.08;70.40;100108.42;1678485;84;21914;-59
2021/07/28 08:26:45;;;;;;;12.95;5.85;;;;;;;23.21;70.26;100101.33;1688650;84;21295;-59
2021/07/28 08:29:12;;;;;;;8.90;5.67;;;;;;;23.43;70.41;100106.00;1768841;81;21000;-59
2021/07/28 08:31:39;;;;;;;12.53;6.45;;;;;;;23.72;69.76;100107.48;1767219;81;20936;-59
2021/07/28 08:34:06;;;;;;;16.32;7.45;;;;;;;24.03;69.28;100108.08;1767470;81;21044;-58
2021/07/28 08:36:33;;;;;;;13.93;8.65;;;;;;;24.29;68.09;100101.34;1766333;81;21126;-58
2021/07/28 08:39:01;;;;;;;27.93;10.13;;;;;;;24.52;66.70;100105.35;1701648;84;20882;-58
2021/07/28 08:41:29;;;;;;;19.92;9.65;;;;;;;24.74;66.02;100105.83;1707185;83;20908;-60
2021/07/28 08:43:59;;;;;;;18.00;9.18;;;;;;;24.96;65.33;100101.35;1707342;83;21466;-58
2021/07/28 08:46:26;;;;;;;18.25;8.43;;;;;;;25.17;65.22;100101.51;1766563;81;20935;-59
2021/07/28 08:48:54;;;;;;;14.70;8.33;;;;;;;25.41;63.99;100092.83;1770391;79;21083;-59
2021/07/28 08:51:27;;;;;;;12.60;8.43;;;;;;;25.62;63.31;100091.57;1781098;79;21229;-59
2021/07/28 08:53:54;;;;;;;16.12;8.60;;;;;;;25.81;62.12;100090.38;1767499;81;20923;-58
2021/07/28 08:56:22;;;;;;;14.07;7.05;;;;;;;25.99;61.57;100090.60;1735257;81;20893;-59
2021/07/28 08:58:49;;;;;;;12.70;6.50;;;;;;;26.14;59.94;100089.82;1759895;81;20999;-58
2021/07/28 09:01:17;;;;;;;16.52;7.15;;;;;;;26.25;59.35;100085.58;1701112;84;21175;-59
2021/07/28 09:03:45;;;;;;;15.28;6.80;;;;;;;26.39;58.72;100081.21;1707590;84;21533;-59
2021/07/28 09:06:29;;;;;;;9.25;7.12;;;;;;;26.51;58.51;100086.78;1703739;84;20968;-60
2021/07/28 09:09:00;;;;;;;13.43;6.80;;;;;;;26.60;58.22;100085.36;1704696;84;21490;-59
2021/07/28 09:11:27;;;;;;;10.20;6.97;;;;;;;26.71;57.53;100089.95;1767238;81;21026;-58
2021/07/28 09:13:56;;;;;;;12.35;7.22;;;;;;;26.84;58.05;100092.18;1768052;81;21165;-60
2021/07/28 09:16:24;;;;;;;12.50;7.83;;;;;;;26.98;58.48;100092.73;1763768;81;20929;-59
2021/07/28 09:18:52;;;;;;;15.15;5.95;;;;;;;27.14;58.04;100091.55;1744880;81;20961;-59
2021/07/28 09:21:25;;;;;;;13.95;5.87;;;;;;;27.33;56.87;100098.52;1767860;81;20908;-58
2021/07/28 09:24:11;;;;;;;14.45;6.12;;;;;;;27.50;56.83;100103.06;1766329;80;20941;-59
2021/07/28 09:26:51;;;;;;;10.00;6.33;;;;;;;27.67;55.89;100095.22;1767100;81;21138;-60
2021/07/28 09:29:25;;;;;;;10.00;6.03;;;;;;;27.85;55.29;100095.82;1766147;79;20957;-59
2021/07/28 09:31:55;;;;;;;15.35;6.47;;;;;;;28.02;54.82;100096.20;1778349;79;20975;-58
2021/07/28 09:34:27;;;;;;;9.75;5.67;;;;;;;28.17;54.24;100098.30;1784607;79;20984;-59
2021/07/28 09:37:11;;;;;;;9.40;6.30;;;;;;;28.30;53.64;100103.24;1786870;79;21070;-58
2021/07/28 09:39:39;;;;;;;9.35;6.17;;;;;;;28.30;53.37;100097.15;1784336;79;21914;-58
2021/07/28 09:42:13;;;;;;;11.38;6.30;;;;;;;28.31;54.65;100093.25;1775972;79;21493;-58
2021/07/28 09:44:42;;;;;;;16.67;7.15;;;;;;;28.42;54.77;100092.79;1778703;79;21000;-62
2021/07/28 09:47:21;;;;;;;14.10;6.47;;;;;;;28.53;53.59;100094.49;1786703;79;20989;-58
2021/07/28 09:50:00;;;;;;;14.95;6.55;;;;;;;28.58;53.17;100090.93;1787783;79;21006;-58
2021/07/28 09:52:35;;;;;;;11.48;7.08;;;;;;;28.59;54.13;100094.48;1785123;79;21134;-61
2021/07/28 09:55:29;;;;;;;9.68;6.25;;;;;;;28.59;54.15;100093.92;1783396;79;20983;-60
2021/07/28 09:57:57;;;;;;;9.78;5.90;;;;;;;28.61;54.37;100088.88;1786206;79;20928;-59
2021/07/28 10:00:28;;;;;;;10.48;6.53;;;;;;;28.66;55.19;100089.22;1787439;79;21623;-59
2021/07/28 10:03:01;;;;;;;12.80;8.03;;;;;;;28.76;55.83;100090.70;1783931;79;21020;-59
2021/07/28 10:05:28;;;;;;;12.35;6.95;;;;;;;28.90;55.65;100084.80;1787736;79;21110;-60
2021/07/28 10:08:00;;;;;;;14.50;7.00;;;;;;;29.03;55.54;100082.22;1778897;79;21479;-58
2021/07/28 10:10:27;;;;;;;15.65;7.75;;;;;;;29.16;56.58;100081.02;1767298;81;21018;-59
2021/07/28 10:12:54;;;;;;;13.65;7.50;;;;;;;29.27;53.93;100082.75;1780845;79;21521;-60
2021/07/28 10:15:21;;;;;;;13.60;7.92;;;;;;;29.32;52.25;100075.58;1767350;80;20963;-60
2021/07/28 10:17:49;;;;;;;20.72;8.13;;;;;;;29.32;50.24;100078.93;1766637;81;21517;-61
2021/07/28 10:20:16;;;;;;;10.03;6.90;;;;;;;29.28;49.91;100080.78;1768214;80;20944;-59
2021/07/28 10:22:44;;;;;;;12.68;7.22;;;;;;;29.19;49.84;100078.94;1768214;81;21026;-59
2021/07/28 10:25:16;;;;;;;14.13;7.42;;;;;;;29.13;50.52;100072.06;1767457;81;21508;-60
2021/07/28 10:27:46;;;;;;;11.63;7.55;;;;;;;29.09;50.75;100069.78;1768227;81;20957;-58
2021/07/28 10:30:14;;;;;;;9.75;6.92;;;;;;;29.09;51.51;100077.27;1766733;81;21145;-59
2021/07/28 10:32:47;;;;;;;15.78;7.95;;;;;;;29.12;51.81;100067.73;1768094;80;21473;-59
2021/07/28 10:35:27;;;;;;;16.02;7.67;;;;;;;29.16;52.04;100074.71;1763304;81;21003;-60
2021/07/28 10:37:56;;;;;;;12.68;7.83;;;;;;;29.18;52.55;100072.39;1765552;81;20975;-60
2021/07/28 10:40:40;;;;;;;15.28;8.28;;;;;;;29.22;51.49;100066.43;1749594;80;20943;-59
2021/07/28 10:43:08;;;;;;;21.00;7.92;;;;;;;29.27;51.56;100068.13;1760379;81;21179;-59
2021/07/28 10:45:55;;;;;;;8.53;7.25;;;;;;;29.26;51.82;100066.55;1768361;80;20925;-59
2021/07/28 10:48:50;;;;;;;11.65;7.50;;;;;;;29.26;51.13;100054.92;1766627;81;21059;-60
2021/07/28 10:51:53;;;;;;;14.05;8.53;;;;;;;29.26;51.34;100044.47;1762795;81;20970;-60
2021/07/28 10:54:49;;;;;;;14.93;7.15;;;;;;;29.26;49.59;100041.71;1767150;81;21505;-59
2021/07/28 10:57:46;;;;;;;17.98;8.03;;;;;;;29.24;50.11;100037.92;1763895;81;21543;-60
2021/07/28 11:00:20;;;;;;;11.17;7.43;;;;;;;29.26;50.14;100039.74;1767205;81;21414;-61
2021/07/28 11:03:02;;;;;;;16.00;7.87;;;;;;;29.27;49.82;100040.53;1742054;80;21470;-60
2021/07/28 11:05:30;;;;;;;17.30;8.60;;;;;;;29.26;50.05;100039.74;1747240;81;21578;-59
2021/07/28 11:08:08;;;;;;;20.68;8.00;;;;;;;29.26;49.72;100035.60;1746027;81;21023;-60
2021/07/28 11:10:46;;;;;;;13.33;7.60;;;;;;;29.24;50.20;100044.00;1749092;81;21805;-60
2021/07/28 11:13:16;;;;;;;13.48;7.75;;;;;;;29.24;50.04;100032.96;1744471;81;21011;-60
2021/07/28 11:16:05;;;;;;;10.43;7.65;;;;;;;29.22;50.60;100037.45;1681351;84;20945;-59
2021/07/28 11:18:48;;;;;;;13.93;8.15;;;;;;;29.23;50.60;100033.55;1690470;84;21558;-59
2021/07/28 11:21:28;;;;;;;14.43;8.10;;;;;;;29.27;51.11;100036.39;1746755;81;21056;-60
2021/07/28 11:24:03;;;;;;;16.00;8.08;;;;;;;29.29;50.45;100039.63;1744511;81;22016;-59
2021/07/28 11:26:47;;;;;;;10.65;7.58;;;;;;;29.31;50.84;100029.02;1740182;81;21455;-60
2021/07/28 11:29:18;;;;;;;16.73;9.10;;;;;;;29.31;50.68;100025.70;1742634;81;20976;-60
2021/07/28 11:31:48;;;;;;;13.65;8.43;;;;;;;29.30;50.43;100024.64;1744525;81;21293;-59
2021/07/28 11:34:22;;;;;;;12.98;7.62;;;;;;;29.27;50.98;100023.42;1745044;81;21582;-60
2021/07/28 11:37:03;;;;;;;16.30;7.78;;;;;;;29.28;51.65;100022.24;1745794;81;21097;-59
2021/07/28 11:39:31;;;;;;;15.72;7.78;;;;;;;29.29;51.67;100023.86;1745492;80;21056;-59
2021/07/28 11:42:06;;;;;;;11.05;7.58;;;;;;;29.30;52.40;100023.27;1749191;81;20996;-59
2021/07/28 11:44:43;;;;;;;15.78;8.30;;;;;;;29.35;53.63;100023.02;1750704;81;21541;-60
2021/07/28 11:47:10;;;;;;;16.67;8.85;;;;;;;29.39;54.04;100017.02;1748599;81;21471;-59
2021/07/28 11:49:38;;;;;;;10.75;8.23;;;;;;;29.42;53.61;100017.70;1752890;81;21142;-59
2021/07/28 11:52:05;;;;;;;12.73;8.50;;;;;;;29.45;53.06;100016.98;1746907;81;21582;-60
2021/07/28 11:54:33;;;;;;;16.40;9.28;;;;;;;29.47;52.83;100011.11;1748361;81;21407;-59
2021/07/28 11:57:00;;;;;;;11.88;8.35;;;;;;;29.46;52.61;100005.34;1745135;81;20932;-59
2021/07/28 11:59:31;;;;;;;12.55;8.25;;;;;;;29.45;52.77;100005.94;1665702;84;21097;-59
2021/07/28 12:02:00;;;;;;;12.10;8.13;;;;;;;29.46;53.18;100006.73;1685321;84;21531;-60
2021/07/28 12:04:29;;;;;;;14.55;9.55;;;;;;;29.46;53.18;100006.17;1700236;84;21565;-60
2021/07/28 12:07:00;;;;;;;9.90;7.30;;;;;;;29.48;53.98;100003.05;1708713;83;21065;-59
2021/07/28 12:09:27;;;;;;;13.80;8.30;;;;;;;29.53;54.00;100000.02;1709914;83;21621;-59
2021/07/28 12:12:23;;;;;;;14.18;7.95;;;;;;;29.59;53.43;100006.08;1709580;83;20976;-59
2021/07/28 12:15:08;;;;;;;15.30;8.70;;;;;;;29.63;53.35;100010.53;1706790;83;21102;-59
2021/07/28 12:17:35;;;;;;;16.32;8.20;;;;;;;29.67;53.30;100000.97;1709433;83;21062;-60
2021/07/28 12:20:10;;;;;;;14.03;8.90;;;;;;;29.71;53.63;99998.52;1705948;83;20904;-60
2021/07/28 12:22:39;;;;;;;14.43;8.00;;;;;;;29.76;53.10;100003.55;1706619;83;20956;-59
2021/07/28 12:25:26;;;;;;;19.95;8.30;;;;;;;29.78;51.64;100003.39;1707116;83;21055;-59
2021/07/28 12:28:01;;;;;;;12.18;7.97;;;;;;;29.80;52.03;100005.80;1710099;82;21490;-59
2021/07/28 12:30:35;;;;;;;13.85;7.95;;;;;;;29.83;51.73;100002.34;1717175;82;20979;-60
2021/07/28 12:33:12;;;;;;;16.32;8.75;;;;;;;29.84;50.72;100004.78;1710354;82;21042;-60
2021/07/28 12:35:55;;;;;;;14.53;8.53;;;;;;;29.84;50.77;100001.20;1717538;82;21041;-59
2021/07/28 12:38:25;;;;;;;15.70;7.58;;;;;;;29.82;50.47;99991.89;1708242;83;21052;-62
2021/07/28 12:41:02;;;;;;;17.57;8.20;;;;;;;29.80;50.92;99997.52;1709615;83;21990;-59
2021/07/28 12:43:33;;;;;;;10.60;7.70;;;;;;;29.80;51.91;99987.84;1714651;82;20901;-58
2021/07/28 12:46:05;;;;;;;12.07;7.80;;;;;;;29.80;51.28;99982.33;1708618;83;21003;-59
2021/07/28 12:48:34;;;;;;;11.28;7.85;;;;;;;29.78;51.18;99981.89;1719934;82;21054;-61
2021/07/28 12:51:03;;;;;;;10.58;7.92;;;;;;;29.75;51.39;99982.02;1719963;82;21546;-60
2021/07/28 12:53:31;;;;;;;9.85;7.58;;;;;;;29.73;50.84;99978.83;1707749;82;22370;-60
2021/07/28 12:55:59;;;;;;;12.70;7.42;;;;;;;29.70;50.83;99972.64;1715063;82;21462;-60
2021/07/28 12:58:26;;;;;;;11.73;7.37;;;;;;;29.69;50.98;99968.27;1722698;82;21517;-60
2021/07/28 13:00:55;;;;;;;9.90;5.97;;;;;;;29.68;50.10;99965.27;1722739;82;21027;-60
2021/07/28 13:03:24;;;;;;;11.95;5.97;;;;;;;29.67;48.25;99966.45;1699203;82;21011;-59
2021/07/28 13:05:55;;;;;;;9.38;6.67;;;;;;;29.65;47.05;99966.81;1706698;84;21209;-58
2021/07/28 13:08:20;;;;;;;10.85;5.80;;;;;;;29.64;46.97;99959.68;1694017;83;21026;-59
2021/07/28 13:10:48;;;;;;;13.08;7.10;;;;;;;29.63;45.56;99956.69;1697324;84;21028;-58
2021/07/28 13:13:15;;;;;;;10.32;6.12;;;;;;;29.63;46.55;99951.75;1672509;84;21097;-59
2021/07/28 13:15:46;;;;;;;14.07;6.45;;;;;;;29.61;47.26;99947.15;1706678;84;20959;-59
2021/07/28 13:18:14;;;;;;;12.53;6.03;;;;;;;29.62;47.99;99946.82;1706135;84;21167;-58
2021/07/28 13:20:41;;;;;;;12.28;6.58;;;;;;;29.63;48.29;99945.64;1706216;84;20849;-59
2021/07/28 13:23:09;;;;;;;10.10;6.40;;;;;;;29.63;47.27;99951.16;1706897;84;20916;-60
2021/07/28 13:25:36;;;;;;;10.25;6.30;;;;;;;29.63;46.80;99953.13;1706783;84;28165;-60